createdAt,value
2022-12-08T00:02:22.125Z,2.53
2022-12-08T00:05:09.419Z,3.00
2022-12-08T00:07:58.713Z,2.88
2022-12-08T00:10:48.500Z,2.63
2022-12-08T00:13:16.104Z,2.97
2022-12-08T00:15:44.546Z,3.15
2022-12-08T00:18:12.670Z,3.38
2022-12-08T00:20:41.427Z,2.80
2022-12-08T00:23:10.198Z,3.08
2022-12-08T00:25:38.897Z,3.50
2022-12-08T00:28:07.529Z,3.30
2022-12-08T00:30:36.490Z,2.97
2022-12-08T00:33:05.129Z,3.20
2022-12-08T00:35:35.644Z,3.40
2022-12-08T00:38:06.513Z,2.95
2022-12-08T00:40:35.154Z,3.03
2022-12-08T00:43:03.782Z,3.50
2022-12-08T00:45:32.217Z,2.97
2022-12-08T00:48:00.872Z,3.28
2022-12-08T00:50:29.489Z,2.78
2022-12-08T00:52:57.845Z,3.05
2022-12-08T00:55:27.056Z,3.08
2022-12-08T00:57:55.721Z,3.17
2022-12-08T01:00:24.411Z,3.15
2022-12-08T01:02:52.881Z,2.92
2022-12-08T01:05:21.649Z,2.75
2022-12-08T01:07:50.826Z,3.67
2022-12-08T01:10:19.272Z,2.60
2022-12-08T01:12:47.896Z,2.85
2022-12-08T01:15:16.884Z,3.42
2022-12-08T01:17:45.276Z,2.95
2022-12-08T01:20:13.995Z,2.67
2022-12-08T01:22:42.615Z,2.90
2022-12-08T01:25:11.794Z,2.45
2022-12-08T01:27:40.389Z,2.97
2022-12-08T01:30:09.780Z,2.92
2022-12-08T01:32:38.198Z,3.05
2022-12-08T01:35:07.167Z,3.15
2022-12-08T01:37:35.802Z,2.78
2022-12-08T01:40:05.004Z,2.70
2022-12-08T01:42:35.834Z,2.97
2022-12-08T01:45:08.746Z,2.15
2022-12-08T01:47:44.337Z,2.75
2022-12-08T01:50:15.152Z,2.65
2022-12-08T01:52:51.082Z,2.17
2022-12-08T01:55:24.532Z,2.42
2022-12-08T01:57:59.989Z,2.10
2022-12-08T02:00:28.364Z,2.60
2022-12-08T02:03:06.561Z,2.30
2022-12-08T02:05:40.965Z,2.50
2022-12-08T02:08:12.423Z,2.50
2022-12-08T02:10:42.955Z,2.85
2022-12-08T02:13:19.895Z,2.38
2022-12-08T02:16:22.121Z,2.90
2022-12-08T02:19:28.627Z,2.65
2022-12-08T02:22:00.814Z,2.65
2022-12-08T02:24:42.875Z,3.22
2022-12-08T02:27:57.571Z,2.90
2022-12-08T02:30:33.848Z,2.83
2022-12-08T02:33:40.652Z,2.90
2022-12-08T02:36:15.388Z,3.13
2022-12-08T02:39:02.913Z,2.88
2022-12-08T02:41:40.276Z,2.83
2022-12-08T02:44:08.734Z,2.58
2022-12-08T02:46:44.298Z,2.72
2022-12-08T02:49:16.089Z,3.45
2022-12-08T02:51:44.761Z,3.08
2022-12-08T02:54:13.841Z,2.70
2022-12-08T02:57:12.420Z,2.60
2022-12-08T02:59:50.161Z,2.40
2022-12-08T03:02:43.985Z,2.83
2022-12-08T03:05:33.043Z,3.10
2022-12-08T03:08:14.111Z,3.00
2022-12-08T03:10:49.177Z,3.00
2022-12-08T03:13:19.922Z,3.40
2022-12-08T03:15:51.468Z,3.30
2022-12-08T03:18:22.188Z,3.20
2022-12-08T03:20:50.470Z,3.17
2022-12-08T03:23:19.795Z,3.08
2022-12-08T03:26:14.041Z,2.80
2022-12-08T03:31:14.340Z,3.03
2022-12-08T03:33:45.251Z,2.65
2022-12-08T03:36:14.361Z,3.38
2022-12-08T03:38:45.073Z,3.33
2022-12-08T03:41:19.973Z,3.03
2022-12-08T03:43:50.584Z,2.85
2022-12-08T03:48:48.183Z,3.53
2022-12-08T03:51:17.393Z,3.15
2022-12-08T03:53:46.200Z,3.63
2022-12-08T03:56:31.122Z,3.83
2022-12-08T03:59:00.145Z,4.82
2022-12-08T04:01:29.181Z,3.63
2022-12-08T04:03:58.058Z,4.30
2022-12-08T04:06:26.722Z,4.22
2022-12-08T04:08:55.148Z,4.00
2022-12-08T04:11:23.933Z,3.88
2022-12-08T04:13:52.706Z,4.10
2022-12-08T04:16:23.604Z,3.42
2022-12-08T04:18:52.719Z,3.63
2022-12-08T04:21:22.031Z,3.88
2022-12-08T04:23:52.128Z,3.90
2022-12-08T04:26:22.638Z,3.90
2022-12-08T04:28:51.283Z,3.75
2022-12-08T04:31:20.009Z,5.05
2022-12-08T04:33:50.010Z,4.47
2022-12-08T04:36:18.669Z,4.07
2022-12-08T04:38:47.339Z,4.18
2022-12-08T04:41:15.733Z,3.97
2022-12-08T04:43:45.759Z,4.93
2022-12-08T04:46:14.294Z,3.97
2022-12-08T04:48:43.415Z,4.07
2022-12-08T04:51:19.789Z,3.90
2022-12-08T04:53:48.801Z,4.35
2022-12-08T04:56:20.097Z,4.30
2022-12-08T04:58:48.904Z,4.32
2022-12-08T05:01:17.650Z,4.32
2022-12-08T05:03:46.375Z,4.90
2022-12-08T05:06:15.896Z,4.53
2022-12-08T05:08:44.795Z,4.50
2022-12-08T05:11:14.347Z,5.03
2022-12-08T05:13:43.162Z,4.47
2022-12-08T05:16:14.824Z,4.85
2022-12-08T05:18:44.818Z,5.80
2022-12-08T05:21:13.454Z,5.82
2022-12-08T05:23:42.204Z,5.65
2022-12-08T05:26:10.875Z,6.05
2022-12-08T05:28:42.441Z,5.43
2022-12-08T05:31:12.952Z,5.07
2022-12-08T05:33:41.532Z,5.60
2022-12-08T05:36:11.443Z,5.82
2022-12-08T05:38:40.185Z,5.55
2022-12-08T05:41:08.948Z,5.97
2022-12-08T05:43:37.647Z,5.55
2022-12-08T05:46:07.014Z,5.47
2022-12-08T05:48:36.050Z,5.75
2022-12-08T05:51:05.213Z,6.18
2022-12-08T05:53:33.862Z,5.97
2022-12-08T05:56:03.050Z,6.25
2022-12-08T05:58:31.731Z,6.28
2022-12-08T06:01:00.375Z,5.95
2022-12-08T06:03:29.157Z,5.65
2022-12-08T06:05:57.955Z,5.50
2022-12-08T06:08:26.661Z,5.97
2022-12-08T06:10:55.370Z,5.45
2022-12-08T06:13:24.077Z,5.60
2022-12-08T06:15:52.680Z,5.40
2022-12-08T06:18:21.100Z,7.38
2022-12-08T06:20:49.748Z,5.97
2022-12-08T06:23:18.393Z,6.05
2022-12-08T06:25:47.056Z,6.07
2022-12-08T06:28:15.709Z,6.35
2022-12-08T06:30:44.298Z,5.70
2022-12-08T06:33:12.997Z,5.95
2022-12-08T06:35:41.627Z,6.30
2022-12-08T06:38:10.116Z,6.05
2022-12-08T06:40:38.796Z,6.53
2022-12-08T06:43:07.451Z,6.45
2022-12-08T06:45:36.146Z,5.93
2022-12-08T06:48:05.179Z,6.40
2022-12-08T06:50:36.343Z,5.60
2022-12-08T06:53:05.829Z,6.13
2022-12-08T06:58:24.119Z,5.78
2022-12-08T07:00:52.907Z,5.13
2022-12-08T07:03:21.688Z,5.78
2022-12-08T07:05:50.376Z,5.40
2022-12-08T07:08:19.269Z,6.35
2022-12-08T07:10:47.349Z,5.55
2022-12-08T07:13:16.020Z,5.40
2022-12-08T07:15:44.843Z,6.20
2022-12-08T07:18:13.465Z,5.93
2022-12-08T07:20:42.291Z,6.15
2022-12-08T07:23:10.717Z,6.85
2022-12-08T07:25:39.336Z,8.60
2022-12-08T07:28:12.752Z,10.23
2022-12-08T07:30:41.210Z,9.40
2022-12-08T07:33:09.915Z,8.75
2022-12-08T07:35:38.678Z,8.85
2022-12-08T07:38:13.013Z,8.50
2022-12-08T07:40:41.886Z,7.93
2022-12-08T07:43:10.514Z,8.35
2022-12-08T07:45:39.130Z,7.38
2022-12-08T07:48:08.247Z,7.55
2022-12-08T07:50:37.068Z,6.93
2022-12-08T07:53:05.498Z,7.60
2022-12-08T07:55:34.185Z,6.25
2022-12-08T07:58:03.247Z,6.13
2022-12-08T08:00:31.872Z,6.32
2022-12-08T08:03:00.733Z,5.38
2022-12-08T08:05:29.479Z,5.68
2022-12-08T08:07:58.147Z,5.80
2022-12-08T08:10:27.153Z,6.40
2022-12-08T08:12:55.863Z,6.72
2022-12-08T08:15:24.491Z,6.55
2022-12-08T08:17:53.845Z,5.78
2022-12-08T08:20:22.918Z,5.63
2022-12-08T08:22:52.690Z,5.80
2022-12-08T08:25:24.075Z,5.78
2022-12-08T08:27:52.998Z,6.45
2022-12-08T08:30:21.804Z,5.75
2022-12-08T08:32:51.639Z,6.05
2022-12-08T08:35:20.444Z,6.10
2022-12-08T08:37:49.646Z,6.07
2022-12-08T08:40:19.601Z,6.07
2022-12-08T08:42:48.239Z,5.95
2022-12-08T08:45:16.981Z,6.18
2022-12-08T08:47:45.741Z,6.38
2022-12-08T08:50:14.160Z,6.55
2022-12-08T08:52:42.786Z,6.00
2022-12-08T08:55:11.748Z,5.82
2022-12-08T08:57:40.429Z,6.82
2022-12-08T09:00:11.588Z,5.65
2022-12-08T09:02:40.661Z,5.53
2022-12-08T09:05:09.679Z,5.03
2022-12-08T09:07:38.056Z,5.82
2022-12-08T09:10:07.432Z,5.10
2022-12-08T09:12:36.430Z,5.30
2022-12-08T09:15:05.294Z,5.40
2022-12-08T09:17:34.001Z,4.82
2022-12-08T09:20:03.016Z,4.80
2022-12-08T09:22:32.043Z,4.85
2022-12-08T09:25:00.673Z,5.38
2022-12-08T09:27:29.290Z,4.65
2022-12-08T09:29:57.695Z,4.75
2022-12-08T09:32:26.417Z,5.03
2022-12-08T09:34:55.710Z,5.60
2022-12-08T09:37:24.474Z,6.20
2022-12-08T09:39:53.105Z,5.68
2022-12-08T09:42:35.063Z,5.80
2022-12-08T09:45:12.268Z,5.68
2022-12-08T09:47:48.264Z,6.70
2022-12-08T09:50:31.863Z,5.60
2022-12-08T09:53:25.959Z,5.30
2022-12-08T09:56:21.846Z,5.32
2022-12-08T09:59:30.992Z,5.88
2022-12-08T10:01:59.218Z,5.32
2022-12-08T10:04:36.236Z,5.78
2022-12-08T10:07:33.428Z,5.05
2022-12-08T10:10:20.364Z,5.47
2022-12-08T10:12:53.976Z,5.35
2022-12-08T10:18:09.873Z,4.80
2022-12-08T10:20:41.750Z,5.28
2022-12-08T10:23:20.152Z,5.72
2022-12-08T10:25:54.748Z,6.13
2022-12-08T10:28:23.391Z,5.57
2022-12-08T10:30:52.019Z,6.03
2022-12-08T10:33:22.670Z,6.00
2022-12-08T10:36:04.265Z,5.82
2022-12-08T10:38:35.158Z,6.53
2022-12-08T10:41:13.975Z,6.60
2022-12-08T10:43:51.827Z,6.75
2022-12-08T10:46:27.133Z,6.78
2022-12-08T10:49:13.146Z,6.68
2022-12-08T10:51:43.364Z,6.63
2022-12-08T10:54:39.776Z,6.80
2022-12-08T10:57:08.768Z,6.63
2022-12-08T10:59:37.606Z,6.80
2022-12-08T11:02:12.643Z,7.28
2022-12-08T11:04:41.473Z,7.10
2022-12-08T11:07:12.957Z,6.50
2022-12-08T11:09:50.830Z,7.30
2022-12-08T11:12:23.692Z,6.32
2022-12-08T11:15:02.768Z,6.45
2022-12-08T11:17:40.836Z,7.07
2022-12-08T11:20:12.499Z,6.43
2022-12-08T11:22:46.774Z,7.13
2022-12-08T11:25:28.051Z,6.72
2022-12-08T11:28:01.860Z,6.65
2022-12-08T11:30:33.556Z,6.55
2022-12-08T11:33:08.439Z,6.97
2022-12-08T11:35:40.823Z,6.65
2022-12-08T11:38:21.695Z,7.88
2022-12-08T11:40:56.420Z,7.30
2022-12-08T11:43:35.866Z,6.68
2022-12-08T11:46:22.992Z,7.05
2022-12-08T11:49:06.918Z,7.35
2022-12-08T11:51:35.707Z,8.02
2022-12-08T11:54:04.447Z,8.32
2022-12-08T11:57:01.427Z,8.07
2022-12-08T11:59:36.183Z,8.10
2022-12-08T12:02:06.595Z,8.32
2022-12-08T12:04:45.694Z,9.30
2022-12-08T12:07:41.428Z,8.85
2022-12-08T12:10:25.066Z,9.27
2022-12-08T12:13:11.492Z,9.57
2022-12-08T12:15:45.942Z,9.15
2022-12-08T12:18:19.692Z,9.30
2022-12-08T12:21:02.669Z,8.77
2022-12-08T12:23:56.011Z,9.27
2022-12-08T12:26:33.066Z,9.73
2022-12-08T12:29:19.149Z,9.23
2022-12-08T12:31:55.738Z,10.73
2022-12-08T12:34:30.417Z,10.05
2022-12-08T12:37:33.688Z,10.25
2022-12-08T12:40:04.517Z,10.45
2022-12-08T12:42:59.733Z,10.25
2022-12-08T12:45:32.624Z,9.88
2022-12-08T12:48:01.539Z,10.70
2022-12-08T12:50:36.231Z,10.55
2022-12-08T12:53:27.606Z,11.35
2022-12-08T12:56:01.541Z,10.25
2022-12-08T12:58:30.646Z,11.02
2022-12-08T13:01:14.695Z,11.13
2022-12-08T13:03:48.001Z,12.35
2022-12-08T13:06:24.651Z,12.35
2022-12-08T13:08:55.388Z,12.38
2022-12-08T13:11:24.887Z,12.48
2022-12-08T13:14:02.646Z,12.70
2022-12-08T13:16:36.174Z,13.77
2022-12-08T13:21:41.127Z,12.57
2022-12-08T13:24:15.476Z,13.10
2022-12-08T13:27:06.082Z,13.30
2022-12-08T13:29:38.739Z,12.88
2022-12-08T13:32:35.433Z,14.33
2022-12-08T13:35:17.336Z,12.35
2022-12-08T13:37:55.171Z,13.38
2022-12-08T13:40:30.879Z,13.73
2022-12-08T13:43:05.247Z,14.00
2022-12-08T13:46:18.242Z,14.48
2022-12-08T13:57:33.342Z,14.27
2022-12-08T14:00:21.544Z,13.45
2022-12-08T14:02:52.031Z,14.98
2022-12-08T14:05:35.195Z,13.45
2022-12-08T14:11:36.348Z,14.05
2022-12-08T14:15:00.445Z,13.10
2022-12-08T14:17:20.704Z,13.70
2022-12-08T14:20:22.440Z,12.05
2022-12-08T14:22:51.485Z,12.43
2022-12-08T14:25:21.423Z,12.98
2022-12-08T14:27:50.505Z,12.48
2022-12-08T14:30:23.797Z,13.10
2022-12-08T14:32:56.152Z,11.63
2022-12-08T14:35:34.454Z,10.43
2022-12-08T14:38:05.630Z,10.20
2022-12-08T14:40:38.106Z,9.57
2022-12-08T14:43:06.779Z,8.70
2022-12-08T14:45:44.185Z,8.65
2022-12-08T14:48:40.209Z,7.82
2022-12-08T14:51:21.167Z,8.63
2022-12-08T14:54:07.581Z,7.85
2022-12-08T14:56:50.039Z,7.95
2022-12-08T14:59:36.489Z,7.90
2022-12-08T15:02:23.762Z,8.82
2022-12-08T15:04:59.124Z,7.55
2022-12-08T15:07:33.135Z,8.18
2022-12-08T15:10:19.371Z,7.90
2022-12-08T15:13:21.234Z,8.20
2022-12-08T15:15:58.307Z,7.45
2022-12-08T15:18:43.509Z,7.82
2022-12-08T15:21:14.321Z,7.45
2022-12-08T15:23:50.085Z,7.15
2022-12-08T15:26:26.851Z,7.38
2022-12-08T15:28:56.965Z,7.55
2022-12-08T15:31:25.644Z,7.88
2022-12-08T15:33:54.385Z,8.13
2022-12-08T15:36:23.039Z,8.20
2022-12-08T15:38:51.669Z,11.68
2022-12-08T15:41:20.369Z,13.88
2022-12-08T15:43:49.061Z,13.95
2022-12-08T15:46:17.740Z,13.15
2022-12-08T15:48:46.778Z,14.02
2022-12-08T15:51:15.514Z,14.20
2022-12-08T15:53:44.498Z,13.18
2022-12-08T15:56:29.365Z,13.98
2022-12-08T15:58:58.610Z,13.50
2022-12-08T16:01:28.065Z,13.18
2022-12-08T16:09:39.978Z,12.82
2022-12-08T16:13:40.359Z,12.00
2022-12-08T16:18:25.776Z,12.57
2022-12-08T16:21:22.687Z,12.65
2022-12-08T16:23:44.630Z,11.25
2022-12-08T16:26:39.439Z,11.73
2022-12-08T16:29:07.719Z,12.45
2022-12-08T16:31:36.690Z,11.85
2022-12-08T16:34:05.393Z,12.07
2022-12-08T16:36:34.062Z,12.38
2022-12-08T16:39:02.874Z,12.13
2022-12-08T16:41:50.300Z,11.63
2022-12-08T16:44:18.934Z,12.00
2022-12-08T16:46:47.616Z,12.23
2022-12-08T16:49:17.039Z,12.55
2022-12-08T16:51:45.713Z,12.18
2022-12-08T16:54:14.387Z,11.27
2022-12-08T16:56:43.116Z,10.68
2022-12-08T16:59:11.944Z,11.68
2022-12-08T17:01:40.764Z,11.27
2022-12-08T17:06:59.089Z,11.38
2022-12-08T17:09:29.175Z,10.68
2022-12-08T17:12:03.264Z,10.63
2022-12-08T17:14:35.893Z,9.98
2022-12-08T17:17:04.719Z,10.65
2022-12-08T17:19:33.692Z,10.38
2022-12-08T17:22:03.607Z,10.85
2022-12-08T17:24:32.993Z,10.25
2022-12-08T17:27:05.397Z,11.00
2022-12-08T17:29:35.165Z,10.10
2022-12-08T17:32:03.881Z,10.02
2022-12-08T17:34:32.652Z,9.43
2022-12-08T17:37:01.336Z,10.52
2022-12-08T17:39:30.091Z,9.80
2022-12-08T17:41:58.557Z,9.63
2022-12-08T17:44:27.260Z,9.85
2022-12-08T17:46:55.929Z,8.98
2022-12-08T17:49:26.711Z,9.93
2022-12-08T17:51:57.403Z,9.68
2022-12-08T17:54:26.206Z,8.68
2022-12-08T17:56:55.469Z,9.70
2022-12-08T17:59:24.362Z,9.20
2022-12-08T18:01:56.818Z,9.65
2022-12-08T18:04:26.571Z,9.60
2022-12-08T18:06:55.220Z,9.60
2022-12-08T18:09:23.739Z,9.80
2022-12-08T18:11:52.406Z,10.70
2022-12-08T18:14:20.832Z,10.20
2022-12-08T18:16:50.480Z,10.30
2022-12-08T18:19:19.209Z,9.93
2022-12-08T18:21:47.922Z,10.85
2022-12-08T18:24:22.885Z,10.25
2022-12-08T18:26:53.537Z,9.82
2022-12-08T18:29:24.061Z,10.52
2022-12-08T18:31:53.193Z,10.48
2022-12-08T18:34:21.963Z,9.70
2022-12-08T18:36:50.808Z,10.70
2022-12-08T18:39:33.367Z,10.48
2022-12-08T18:42:22.500Z,10.55
2022-12-08T18:45:00.608Z,9.98
2022-12-08T18:47:29.288Z,10.32
2022-12-08T18:49:57.973Z,9.68
2022-12-08T18:52:31.735Z,10.52
2022-12-08T18:55:08.592Z,11.27
2022-12-08T18:57:41.403Z,10.40
2022-12-08T19:00:15.249Z,10.38
2022-12-08T19:02:43.797Z,10.13
2022-12-08T19:05:13.887Z,10.02
2022-12-08T19:07:43.603Z,9.95
2022-12-08T19:10:12.991Z,9.38
2022-12-08T19:12:41.877Z,10.40
2022-12-08T19:15:10.861Z,9.65
2022-12-08T19:17:39.512Z,9.35
2022-12-08T19:20:09.284Z,9.90
2022-12-08T19:22:38.166Z,9.68
2022-12-08T19:25:07.151Z,9.88
2022-12-08T19:27:35.793Z,9.45
2022-12-08T19:30:05.546Z,9.38
2022-12-08T19:32:34.415Z,10.35
2022-12-08T19:35:08.377Z,10.48
2022-12-08T19:37:37.224Z,10.15
2022-12-08T19:40:25.664Z,9.50
2022-12-08T19:43:12.409Z,10.27
2022-12-08T19:45:41.212Z,10.60
2022-12-08T19:48:09.249Z,10.15
2022-12-08T19:50:37.928Z,10.43
2022-12-08T19:53:09.106Z,10.65
2022-12-08T19:55:38.744Z,10.38
2022-12-08T19:58:08.427Z,11.13
2022-12-08T20:00:38.500Z,11.10
2022-12-08T20:03:07.440Z,11.10
2022-12-08T20:05:38.029Z,10.85
2022-12-08T20:08:07.150Z,10.30
2022-12-08T20:10:40.083Z,11.38
2022-12-08T20:13:28.220Z,10.43
2022-12-08T20:15:57.361Z,10.98
2022-12-08T20:18:26.746Z,10.75
2022-12-08T20:20:55.451Z,10.57
2022-12-08T20:23:24.036Z,9.65
2022-12-08T20:25:52.444Z,10.30
2022-12-08T20:28:20.904Z,9.75
2022-12-08T20:30:50.139Z,10.13
2022-12-08T20:33:19.805Z,10.15
2022-12-08T20:35:48.718Z,10.63
2022-12-08T20:38:17.547Z,10.57
2022-12-08T20:40:48.482Z,10.30
2022-12-08T20:43:17.186Z,10.63
2022-12-08T20:45:45.843Z,10.52
2022-12-08T20:48:14.634Z,10.98
2022-12-08T20:50:43.463Z,10.68
2022-12-08T20:53:12.140Z,10.65
2022-12-08T20:55:43.738Z,10.75
2022-12-08T20:58:13.454Z,10.15
2022-12-08T21:00:42.338Z,11.10
2022-12-08T21:03:10.951Z,10.85
2022-12-08T21:05:40.373Z,11.25
2022-12-08T21:08:09.247Z,10.55
2022-12-08T21:10:42.302Z,11.93
2022-12-08T21:13:12.662Z,11.50
2022-12-08T21:15:41.720Z,11.15
2022-12-08T21:18:10.695Z,11.30
2022-12-08T21:20:39.647Z,10.93
2022-12-08T21:23:08.088Z,10.32
2022-12-08T21:25:36.897Z,9.68
2022-12-08T21:28:04.977Z,9.50
2022-12-08T21:30:33.717Z,9.50
2022-12-08T21:33:02.237Z,9.25
2022-12-08T21:35:31.212Z,8.63
2022-12-08T21:38:00.235Z,9.27
2022-12-08T21:40:29.043Z,9.73
2022-12-08T21:42:57.988Z,8.32
2022-12-08T21:45:26.790Z,9.48
2022-12-08T21:47:55.363Z,10.27
2022-12-08T21:50:24.183Z,10.32
2022-12-08T21:52:53.012Z,9.63
2022-12-08T21:55:22.746Z,10.50
2022-12-08T21:57:51.874Z,10.70
2022-12-08T22:00:21.305Z,9.82
2022-12-08T22:02:50.110Z,11.05
2022-12-08T22:05:18.665Z,9.82
2022-12-08T22:07:47.207Z,9.63
2022-12-08T22:10:16.093Z,10.10
2022-12-08T22:12:44.766Z,10.02
2022-12-08T22:15:13.780Z,10.57
2022-12-08T22:17:44.537Z,10.15
2022-12-08T22:20:15.935Z,9.95
2022-12-08T22:22:45.055Z,9.77
2022-12-08T22:25:13.690Z,10.63
2022-12-08T22:27:42.675Z,9.50
2022-12-08T22:30:12.126Z,9.75
2022-12-08T22:32:41.036Z,9.73
2022-12-08T22:35:10.152Z,9.05
2022-12-08T22:37:38.747Z,9.52
2022-12-08T22:40:08.387Z,9.23
2022-12-08T22:42:37.559Z,9.75
2022-12-08T22:45:06.773Z,10.00
2022-12-08T22:47:35.030Z,9.80
2022-12-08T22:50:04.855Z,8.90
2022-12-08T22:52:33.815Z,9.45
2022-12-08T22:55:02.417Z,10.18
2022-12-08T22:57:31.154Z,9.18
2022-12-08T22:59:59.627Z,9.57
2022-12-08T23:02:28.378Z,8.70
2022-12-08T23:04:58.520Z,8.45
2022-12-08T23:07:27.338Z,8.60
2022-12-08T23:09:56.075Z,9.02
2022-12-08T23:12:24.956Z,8.68
2022-12-08T23:14:53.656Z,9.05
2022-12-08T23:17:22.343Z,9.00
2022-12-08T23:19:51.099Z,8.43
2022-12-08T23:22:19.875Z,9.30
2022-12-08T23:24:48.627Z,8.73
2022-12-08T23:27:17.445Z,8.55
2022-12-08T23:29:46.272Z,9.10
2022-12-08T23:32:15.069Z,9.40
2022-12-08T23:34:44.360Z,9.13
2022-12-08T23:37:13.026Z,9.65
2022-12-08T23:39:41.687Z,9.35
2022-12-08T23:42:10.668Z,9.02
2022-12-08T23:44:39.586Z,8.55
2022-12-08T23:47:08.428Z,8.50
2022-12-08T23:49:37.325Z,8.93
2022-12-08T23:52:06.229Z,9.40
2022-12-08T23:54:34.715Z,9.40
2022-12-08T23:57:03.528Z,9.25
2022-12-08T23:59:33.336Z,10.02
